Time;durP1;ratioP1;P1;durP2;ratioP2;P2;SDS_P1;SDS_P2;PMS_P1;PMS_P2;Temp;Humidity;BMP_temperature;BMP_pressure;BME280_temperature;BME280_humidity;BME280_pressure;Samples;Min_cycle;Max_cycle;Signal;HPM_P1;HPM_P2
2023/07/22 00:01:52;;;;;;;5.07;2.70;;;;;;;23.80;55.91;99118.19;4430348;32;33735;-73
2023/07/22 00:04:19;;;;;;;4.25;2.75;;;;;;;23.75;56.07;99120.69;4435110;32;33853;-72
2023/07/22 00:06:47;;;;;;;5.53;3.22;;;;;;;23.75;55.81;99120.69;4434031;32;34977;-68
2023/07/22 00:09:14;;;;;;;5.32;2.65;;;;;;;23.71;56.31;99117.56;4435241;32;34028;-67
2023/07/22 00:11:42;;;;;;;4.93;2.78;;;;;;;23.60;56.51;99120.94;4436625;32;33818;-70
2023/07/22 00:14:10;;;;;;;5.30;2.55;;;;;;;23.53;56.40;99128.31;4432598;32;34667;-73
2023/07/22 00:16:37;;;;;;;3.83;2.35;;;;;;;23.44;56.41;99130.44;4427332;32;33677;-73
2023/07/22 00:19:07;;;;;;;6.28;3.47;;;;;;;23.34;56.69;99135.50;4433236;32;34108;-72
2023/07/22 00:21:34;;;;;;;3.10;2.15;;;;;;;23.32;56.77;99143.03;4430810;32;33361;-73
2023/07/22 00:24:02;;;;;;;6.22;3.35;;;;;;;23.27;57.21;99142.81;4437592;32;33616;-73
2023/07/22 00:26:29;;;;;;;8.57;3.72;;;;;;;23.26;57.65;99124.78;4437047;32;34195;-73
2023/07/22 00:28:57;;;;;;;5.95;2.67;;;;;;;23.20;57.92;99129.19;4435587;32;33805;-73
2023/07/22 00:31:24;;;;;;;5.62;2.67;;;;;;;23.10;57.49;99126.03;4433299;32;34453;-67
2023/07/22 00:33:52;;;;;;;8.85;2.58;;;;;;;23.10;57.04;99133.41;4436885;32;33850;-69
2023/07/22 00:36:20;;;;;;;5.50;2.70;;;;;;;22.96;57.42;99125.22;4437459;32;33570;-69
2023/07/22 00:38:47;;;;;;;5.85;3.30;;;;;;;23.06;57.08;99115.78;4435497;32;34196;-66
2023/07/22 00:41:15;;;;;;;4.55;2.55;;;;;;;22.99;57.25;99116.63;4434755;32;34307;-67
2023/07/22 00:43:44;;;;;;;10.07;3.90;;;;;;;23.00;57.40;99115.56;4433537;32;34473;-66
2023/07/22 00:46:11;;;;;;;5.82;2.67;;;;;;;22.76;57.83;99111.53;4432057;32;33952;-67
2023/07/22 00:48:39;;;;;;;5.28;3.03;;;;;;;22.95;57.43;99117.22;4430789;32;33700;-67
2023/07/22 00:51:07;;;;;;;3.45;2.00;;;;;;;22.94;57.69;99131.94;4395938;32;33270;-66
2023/07/22 00:53:34;;;;;;;13.65;3.28;;;;;;;22.92;57.79;99143.03;4403901;32;33725;-66
2023/07/22 00:56:02;;;;;;;6.68;3.35;;;;;;;22.96;57.37;99146.22;4402906;32;35125;-66
2023/07/22 00:58:30;;;;;;;5.45;2.72;;;;;;;22.93;57.39;99152.94;4402902;32;34894;-66
2023/07/22 01:00:58;;;;;;;4.85;2.12;;;;;;;22.89;57.42;99159.81;4402858;32;33575;-66
2023/07/22 01:03:26;;;;;;;5.37;2.12;;;;;;;22.77;57.88;99167.78;4407348;32;33617;-67
2023/07/22 01:05:54;;;;;;;6.15;2.85;;;;;;;22.86;57.34;99171.16;4404139;32;33624;-66
2023/07/22 01:08:22;;;;;;;5.62;2.90;;;;;;;22.73;57.86;99173.88;4401522;32;34221;-66
2023/07/22 01:10:50;;;;;;;4.12;1.95;;;;;;;22.73;57.97;99169.25;4403114;32;33502;-66
2023/07/22 01:13:18;;;;;;;4.62;2.40;;;;;;;22.82;57.61;99166.31;4404000;32;34565;-67
2023/07/22 01:15:45;;;;;;;4.68;2.05;;;;;;;22.81;57.72;99167.38;4403725;32;33315;-66
2023/07/22 01:18:13;;;;;;;4.18;2.25;;;;;;;22.76;57.91;99167.97;4415274;32;33905;-66
2023/07/22 01:20:41;;;;;;;5.70;2.55;;;;;;;22.73;58.03;99179.31;4371665;32;33455;-69
2023/07/22 01:23:09;;;;;;;3.92;1.92;;;;;;;22.82;57.86;99179.94;4355691;32;34597;-69
2023/07/22 01:25:37;;;;;;;4.30;2.67;;;;;;;22.79;58.32;99192.97;4370579;32;34682;-69
2023/07/22 01:28:10;;;;;;;4.20;2.28;;;;;;;22.87;58.32;99186.47;4375663;32;35252;-70
2023/07/22 01:30:38;;;;;;;7.15;2.67;;;;;;;22.87;58.00;99185.63;4398399;32;34425;-69
2023/07/22 01:33:05;;;;;;;4.28;2.28;;;;;;;22.87;57.78;99185.63;4402722;32;34638;-69
2023/07/22 01:35:35;;;;;;;2.92;1.55;;;;;;;22.88;57.89;99188.13;4399797;32;33789;-69
2023/07/22 01:38:03;;;;;;;5.15;2.47;;;;;;;22.87;58.07;99188.34;4398775;32;34866;-69
2023/07/22 01:40:31;;;;;;;3.55;2.50;;;;;;;22.76;58.66;99195.25;4401265;32;35073;-69
2023/07/22 01:42:58;;;;;;;7.80;3.22;;;;;;;22.85;58.05;99202.19;4386364;32;33974;-69
2023/07/22 01:45:26;;;;;;;7.72;3.08;;;;;;;22.68;58.15;99200.91;4401825;32;33550;-70
2023/07/22 01:47:53;;;;;;;4.53;1.95;;;;;;;22.83;57.77;99200.75;4403396;32;33855;-70
2023/07/22 01:50:22;;;;;;;5.53;2.62;;;;;;;22.77;57.96;99207.87;4401463;32;32018;-70
2023/07/22 01:52:50;;;;;;;6.55;2.65;;;;;;;22.73;58.14;99212.91;4426406;32;34969;-70
2023/07/22 01:55:18;;;;;;;6.45;2.83;;;;;;;22.70;58.16;99213.31;4436754;32;33576;-70
2023/07/22 01:57:46;;;;;;;5.15;2.55;;;;;;;22.62;58.31;99218.09;4431053;32;33481;-71
2023/07/22 02:00:15;;;;;;;6.22;3.37;;;;;;;22.72;58.00;99224.84;4432297;32;34347;-72
2023/07/22 02:02:43;;;;;;;3.53;2.12;;;;;;;22.76;58.02;99233.44;4434791;32;34721;-71
2023/07/22 02:05:12;;;;;;;5.68;2.83;;;;;;;22.76;57.97;99230.72;4435166;32;35201;-71
2023/07/22 02:07:39;;;;;;;13.25;2.90;;;;;;;22.72;57.94;99232.19;4436400;32;33838;-71
2023/07/22 02:10:09;;;;;;;9.93;2.65;;;;;;;22.58;58.67;99227.75;4434605;32;34392;-71
2023/07/22 02:12:37;;;;;;;8.00;3.25;;;;;;;22.61;58.79;99238.25;4436076;32;33520;-70
2023/07/22 02:15:05;;;;;;;4.20;2.53;;;;;;;22.71;58.50;99242.25;4433756;32;34917;-71
2023/07/22 02:17:33;;;;;;;5.93;2.83;;;;;;;22.59;58.88;99237.59;4437262;32;35389;-70
2023/07/22 02:20:01;;;;;;;13.32;3.40;;;;;;;22.61;59.04;99239.09;4436295;32;33438;-71
2023/07/22 02:22:29;;;;;;;12.57;3.15;;;;;;;22.70;58.84;99248.75;4435203;32;34861;-71
2023/07/22 02:24:57;;;;;;;4.10;2.83;;;;;;;22.74;58.80;99252.75;4436108;32;34773;-71
2023/07/22 02:27:24;;;;;;;5.65;3.87;;;;;;;22.73;58.93;99244.78;4433879;32;35700;-71
2023/07/22 02:29:52;;;;;;;6.75;4.10;;;;;;;22.66;58.85;99250.19;4432642;32;34370;-71
2023/07/22 02:32:20;;;;;;;6.03;3.12;;;;;;;22.63;58.72;99255.22;4434791;32;33938;-71
2023/07/22 02:34:47;;;;;;;6.35;3.60;;;;;;;22.63;58.57;99245.19;4435283;32;34071;-71
2023/07/22 02:37:15;;;;;;;7.32;3.65;;;;;;;22.60;58.73;99237.41;4435292;32;35134;-71
2023/07/22 02:39:42;;;;;;;7.40;3.95;;;;;;;22.55;59.15;99243.47;4433942;32;33323;-71
2023/07/22 02:42:10;;;;;;;5.10;3.35;;;;;;;22.52;59.18;99246.59;4436081;32;33852;-71
2023/07/22 02:44:38;;;;;;;9.30;3.40;;;;;;;22.50;59.22;99256.88;4434108;32;34009;-71
2023/07/22 02:47:06;;;;;;;10.48;4.37;;;;;;;22.58;59.05;99255.84;4435591;32;33965;-71
2023/07/22 02:49:33;;;;;;;7.45;4.60;;;;;;;22.59;59.11;99264.88;4442395;32;33504;-70
2023/07/22 02:52:01;;;;;;;9.02;4.05;;;;;;;22.61;59.28;99269.09;4429852;32;33947;-71
2023/07/22 02:54:28;;;;;;;9.77;4.60;;;;;;;22.65;59.50;99264.91;4431578;32;33945;-72
2023/07/22 02:56:56;;;;;;;5.43;3.45;;;;;;;22.68;59.38;99260.91;4439526;32;35004;-71
2023/07/22 02:59:24;;;;;;;7.18;4.90;;;;;;;22.70;59.24;99267.03;4435418;32;34208;-72
2023/07/22 03:01:52;;;;;;;6.62;3.87;;;;;;;22.72;59.29;99265.75;4433268;32;34636;-72
2023/07/22 03:04:20;;;;;;;6.05;3.65;;;;;;;22.69;59.54;99273.50;4432566;32;33700;-71
2023/07/22 03:06:48;;;;;;;5.72;3.53;;;;;;;22.72;58.95;99273.09;4434055;32;32604;-72
2023/07/22 03:09:15;;;;;;;6.68;4.32;;;;;;;22.70;58.86;99277.94;4420758;32;33558;-72
2023/07/22 03:11:43;;;;;;;8.85;4.57;;;;;;;22.65;58.99;99283.16;4429038;32;33777;-72
2023/07/22 03:14:11;;;;;;;9.75;3.72;;;;;;;22.65;58.92;99283.16;4431573;32;35260;-72
2023/07/22 03:16:38;;;;;;;6.35;4.30;;;;;;;22.63;58.90;99282.50;4431548;32;33840;-72
2023/07/22 03:19:06;;;;;;;5.70;3.58;;;;;;;22.64;58.96;99278.75;4431551;32;34367;-72
2023/07/22 03:21:33;;;;;;;8.07;4.78;;;;;;;;;;4434127;32;33418;-72
2023/07/22 03:24:01;;;;;;;6.78;3.90;;;;;;;22.57;59.11;99278.72;4431696;32;34091;-72
2023/07/22 03:26:28;;;;;;;12.05;3.83;;;;;;;22.54;59.11;99279.97;4432095;32;34091;-73
2023/07/22 03:28:56;;;;;;;5.30;2.95;;;;;;;22.60;59.12;99280.19;4430593;32;33536;-73
2023/07/22 03:31:24;;;;;;;7.97;4.37;;;;;;;22.60;59.31;99275.59;4432221;32;33594;-73
2023/07/22 03:33:52;;;;;;;7.60;3.62;;;;;;;22.49;59.72;99282.44;4432956;32;34017;-74
2023/07/22 03:36:20;;;;;;;6.28;3.65;;;;;;;22.45;60.00;99281.19;4396183;32;34184;-72
2023/07/22 03:38:48;;;;;;;4.82;2.90;;;;;;;22.64;59.61;99287.78;4400897;32;34552;-72
2023/07/22 03:41:15;;;;;;;6.43;4.00;;;;;;;22.70;59.54;99283.41;4389859;32;33650;-72
2023/07/22 03:43:43;;;;;;;5.80;3.30;;;;;;;22.73;59.58;99280.25;4398707;32;33701;-72
2023/07/22 03:46:10;;;;;;;9.23;4.07;;;;;;;22.76;59.14;99283.41;4402799;32;34764;-72
2023/07/22 03:48:38;;;;;;;7.65;4.03;;;;;;;22.71;59.41;99299.53;4402755;32;34530;-72
2023/07/22 03:51:06;;;;;;;5.90;3.90;;;;;;;22.75;59.11;99298.06;4404280;32;34523;-72
2023/07/22 03:53:47;;;;;;;10.02;3.47;;;;;;;22.83;59.00;99302.53;4400238;32;34980;-72
2023/07/22 03:56:15;;;;;;;7.75;4.25;;;;;;;22.78;59.16;99297.66;4401455;32;34002;-72
2023/07/22 03:58:43;;;;;;;5.82;3.45;;;;;;;22.87;58.81;99295.59;4402272;32;34347;-72
2023/07/22 04:01:11;;;;;;;6.93;4.40;;;;;;;22.92;58.69;99297.72;4402230;32;33716;-71
2023/07/22 04:03:39;;;;;;;6.18;3.33;;;;;;;22.89;58.91;99306.31;4402639;32;33912;-71
2023/07/22 04:06:07;;;;;;;6.55;3.95;;;;;;;23.00;58.85;99300.28;4403760;32;34610;-71
2023/07/22 04:08:34;;;;;;;4.15;2.72;;;;;;;22.93;58.83;99302.16;4404669;32;33403;-71
2023/07/22 04:11:03;;;;;;;7.82;3.90;;;;;;;23.08;58.89;99291.06;4403372;32;33375;-72
2023/07/22 04:13:30;;;;;;;8.75;3.78;;;;;;;23.13;58.82;99294.88;4412885;32;33930;-71
2023/07/22 04:15:58;;;;;;;11.55;3.47;;;;;;;23.14;58.81;99298.44;4435125;32;32853;-72
2023/07/22 04:18:26;;;;;;;8.40;3.67;;;;;;;23.21;58.35;99296.53;4435569;32;34221;-71
2023/07/22 04:20:59;;;;;;;5.85;3.35;;;;;;;23.25;58.25;99295.09;4436742;32;33764;-72
2023/07/22 04:23:27;;;;;;;4.87;2.85;;;;;;;22.99;59.22;99285.81;4437026;32;34024;-72
2023/07/22 04:25:54;;;;;;;5.25;2.95;;;;;;;23.26;58.56;99280.41;4437929;32;34250;-74
2023/07/22 04:28:24;;;;;;;5.85;3.42;;;;;;;23.24;58.99;99283.34;4431705;32;34549;-72
2023/07/22 04:30:58;;;;;;;6.00;3.42;;;;;;;23.43;58.64;99286.28;4428278;32;33641;-72
2023/07/22 04:33:27;;;;;;;6.45;3.25;;;;;;;23.48;58.69;99287.34;4432093;32;34152;-72
2023/07/22 04:35:59;;;;;;;5.25;2.92;;;;;;;23.53;58.83;99294.06;4435715;32;32284;-71
2023/07/22 04:38:28;;;;;;;7.80;3.83;;;;;;;23.32;59.29;99289.66;4437676;32;33327;-71
2023/07/22 04:40:55;;;;;;;9.85;4.18;;;;;;;23.60;58.78;99292.19;4435489;32;33854;-71
2023/07/22 04:43:23;;;;;;;7.37;3.78;;;;;;;23.57;59.04;99298.09;4437078;32;33782;-69
2023/07/22 04:45:50;;;;;;;7.97;3.78;;;;;;;23.44;59.46;99301.66;4436480;32;35645;-69
2023/07/22 04:48:22;;;;;;;7.15;3.58;;;;;;;23.13;60.84;99304.94;4435290;32;34680;-70
2023/07/22 04:50:49;;;;;;;7.22;4.30;;;;;;;23.24;60.06;99307.06;4435439;32;33446;-70
2023/07/22 04:53:18;;;;;;;11.12;4.05;;;;;;;23.61;59.46;99308.37;4436357;32;35076;-70
2023/07/22 04:55:45;;;;;;;6.97;4.32;;;;;;;23.68;59.10;99314.69;4435167;32;34696;-70
2023/07/22 04:58:13;;;;;;;5.70;3.65;;;;;;;23.33;60.18;99316.72;4428630;32;33509;-73
2023/07/22 05:00:42;;;;;;;7.32;3.62;;;;;;;23.47;59.89;99317.63;4435447;32;33597;-73
2023/07/22 05:03:10;;;;;;;8.70;4.03;;;;;;;23.02;61.10;99320.03;4433806;32;32897;-72
2023/07/22 05:05:38;;;;;;;10.68;4.07;;;;;;;22.88;61.59;99324.56;4435509;32;34128;-72
2023/07/22 05:08:07;;;;;;;6.87;4.18;;;;;;;22.71;62.06;99320.53;4439122;32;33811;-72
2023/07/22 05:10:35;;;;;;;8.00;3.60;;;;;;;23.34;59.94;99321.16;4433240;32;33552;-72
2023/07/22 05:13:02;;;;;;;6.75;3.97;;;;;;;23.08;60.38;99318.38;4416669;32;33675;-71
2023/07/22 05:15:30;;;;;;;8.20;4.35;;;;;;;23.52;59.54;99326.00;4431548;32;34066;-70
2023/07/22 05:17:58;;;;;;;7.55;4.70;;;;;;;22.76;62.04;99329.78;4433119;32;34093;-70
2023/07/22 05:20:26;;;;;;;6.72;4.03;;;;;;;22.98;61.53;99322.31;4436377;32;33448;-70
2023/07/22 05:22:53;;;;;;;8.77;4.15;;;;;;;22.71;62.30;99328.72;4434449;32;34162;-70
2023/07/22 05:25:21;;;;;;;7.85;5.18;;;;;;;23.31;59.97;99331.66;4435691;32;33929;-70
2023/07/22 05:27:49;;;;;;;7.93;4.22;;;;;;;23.13;61.28;99333.09;4435502;32;32121;-71
2023/07/22 05:30:16;;;;;;;6.62;4.43;;;;;;;22.61;62.18;99330.97;4438098;32;33463;-70
2023/07/22 05:33:01;;;;;;;9.48;5.32;;;;;;;22.50;62.55;99335.97;4434167;32;33375;-70
2023/07/22 05:35:29;;;;;;;7.85;3.83;;;;;;;22.35;63.75;99343.44;4436212;32;32561;-70
2023/07/22 05:37:56;;;;;;;7.60;3.15;;;;;;;22.45;63.17;99330.25;4436203;32;34341;-73
2023/07/22 05:40:24;;;;;;;6.25;3.35;;;;;;;22.72;62.58;99336.69;4435454;32;33819;-69
2023/07/22 05:42:52;;;;;;;7.07;4.25;;;;;;;22.92;62.03;99336.78;4433529;32;34055;-70
2023/07/22 05:45:19;;;;;;;7.40;3.90;;;;;;;22.42;62.85;99333.38;4419697;32;34260;-70
2023/07/22 05:47:47;;;;;;;9.32;4.70;;;;;;;23.04;61.30;99338.94;4435592;32;33418;-69
2023/07/22 05:50:15;;;;;;;6.60;3.17;;;;;;;23.05;61.43;99341.47;4436218;32;33554;-70
2023/07/22 05:52:43;;;;;;;9.75;4.97;;;;;;;23.24;60.53;99345.28;4435712;32;33797;-70
2023/07/22 05:55:10;;;;;;;6.53;3.58;;;;;;;23.09;61.71;99348.19;4420897;32;34901;-70
2023/07/22 05:57:38;;;;;;;6.53;3.70;;;;;;;22.55;64.00;99351.72;4435408;32;34631;-70
2023/07/22 06:00:08;;;;;;;4.62;3.08;;;;;;;23.11;61.59;99358.91;4434792;32;34018;-70
2023/07/22 06:02:38;;;;;;;5.03;3.05;;;;;;;22.47;63.71;99365.50;4431630;32;34230;-70
2023/07/22 06:05:07;;;;;;;7.15;3.37;;;;;;;22.83;62.93;99357.09;4437140;32;36255;-70
2023/07/22 06:07:34;;;;;;;7.47;3.50;;;;;;;22.58;62.74;99361.37;4444881;32;33354;-71
2023/07/22 06:10:02;;;;;;;5.93;3.30;;;;;;;22.76;61.46;99365.25;4437445;32;34435;-70
2023/07/22 06:12:30;;;;;;;6.93;3.47;;;;;;;23.12;61.51;99372.34;4434233;32;33996;-71
2023/07/22 06:14:57;;;;;;;5.82;3.67;;;;;;;22.55;63.86;99362.63;4435546;32;33772;-70
2023/07/22 06:17:25;;;;;;;9.07;3.35;;;;;;;22.73;63.39;99360.22;4434385;32;33567;-70
2023/07/22 06:19:53;;;;;;;5.35;3.00;;;;;;;22.92;61.27;99366.78;4438565;32;33922;-70
2023/07/22 06:22:21;;;;;;;7.97;2.97;;;;;;;22.37;62.36;99348.66;4439442;32;34977;-70
2023/07/22 06:24:48;;;;;;;4.32;2.75;;;;;;;23.19;60.17;99354.09;4434664;32;34007;-70
2023/07/22 06:27:16;;;;;;;7.53;2.42;;;;;;;23.59;59.62;99358.78;4433967;32;33623;-70
2023/07/22 06:29:44;;;;;;;4.62;2.62;;;;;;;23.65;59.97;99367.00;4435346;32;33604;-70
2023/07/22 06:32:11;;;;;;;6.45;3.35;;;;;;;23.32;61.10;99364.22;4433073;32;34236;-70
2023/07/22 06:34:39;;;;;;;6.55;3.10;;;;;;;23.01;61.58;99365.56;4436727;32;33932;-70
2023/07/22 06:37:07;;;;;;;6.30;2.90;;;;;;;22.99;60.37;99366.84;4442361;32;34744;-70
2023/07/22 06:39:34;;;;;;;11.85;3.80;;;;;;;23.10;60.34;99365.41;4434136;32;33682;-71
2023/07/22 06:42:02;;;;;;;6.80;3.58;;;;;;;23.31;59.20;99372.62;4436769;32;33963;-70
2023/07/22 06:44:30;;;;;;;11.27;3.15;;;;;;;23.57;59.33;99369.94;4435725;32;35289;-70
2023/07/22 06:46:59;;;;;;;4.60;2.67;;;;;;;23.55;59.44;99376.66;4429394;32;33259;-71
2023/07/22 06:49:27;;;;;;;4.55;2.55;;;;;;;23.48;58.69;99369.28;4429784;32;33664;-73
2023/07/22 06:51:55;;;;;;;4.47;3.05;;;;;;;23.37;59.42;99375.37;4430574;32;33959;-69
2023/07/22 06:54:22;;;;;;;11.73;3.08;;;;;;;22.84;60.92;99375.16;4430598;32;34174;-69
2023/07/22 06:56:50;;;;;;;4.95;2.55;;;;;;;23.11;60.53;99376.09;4422855;32;33625;-70
2023/07/22 06:59:18;;;;;;;4.72;2.90;;;;;;;23.60;58.00;99372.25;4428659;32;33850;-70
2023/07/22 07:01:45;;;;;;;5.25;3.08;;;;;;;23.40;59.25;99372.22;4431106;32;33946;-70
2023/07/22 07:04:13;;;;;;;6.62;2.67;;;;;;;22.98;59.62;99382.34;4436218;32;35949;-70
2023/07/22 07:06:41;;;;;;;6.05;3.28;;;;;;;22.78;59.73;99379.53;4449691;32;33404;-69
2023/07/22 07:09:08;;;;;;;4.22;2.45;;;;;;;23.61;58.40;99384.84;4441801;32;34099;-72
2023/07/22 07:11:36;;;;;;;4.53;2.53;;;;;;;23.65;58.06;99377.91;4435031;32;34835;-72
2023/07/22 07:14:04;;;;;;;9.23;2.72;;;;;;;23.20;58.36;99387.69;4435093;32;34903;-71
2023/07/22 07:16:31;;;;;;;5.75;2.58;;;;;;;23.41;58.07;99387.56;4433642;32;32223;-71
2023/07/22 07:19:01;;;;;;;6.18;3.00;;;;;;;23.34;58.84;99383.09;4433950;32;33507;-71
2023/07/22 07:21:28;;;;;;;5.20;2.55;;;;;;;23.30;57.53;99398.22;4449432;32;34081;-71
2023/07/22 07:23:56;;;;;;;3.17;1.83;;;;;;;23.40;58.35;99393.22;4451732;32;34921;-71
2023/07/22 07:26:24;;;;;;;4.70;2.70;;;;;;;23.60;59.63;99393.28;4437179;32;34526;-71
2023/07/22 07:28:52;;;;;;;5.37;2.92;;;;;;;23.87;57.29;99392.25;4436356;32;33582;-71
2023/07/22 07:31:20;;;;;;;8.93;2.65;;;;;;;23.39;57.67;99405.19;4431117;32;33888;-72
2023/07/22 07:33:48;;;;;;;7.32;2.55;;;;;;;23.80;57.00;99409.72;4430520;32;33915;-71
2023/07/22 07:36:15;;;;;;;5.82;3.10;;;;;;;23.72;57.06;99408.00;4449079;32;34447;-72
2023/07/22 07:38:43;;;;;;;5.07;3.10;;;;;;;23.89;55.38;99413.94;4432572;32;34444;-73
2023/07/22 07:41:12;;;;;;;5.03;2.85;;;;;;;24.13;54.53;99416.03;4427193;32;33675;-77
2023/07/22 07:43:40;;;;;;;8.75;3.00;;;;;;;23.80;55.46;99421.50;4431661;32;34609;-75
2023/07/22 07:46:22;;;;;;;6.68;3.15;;;;;;;23.71;55.87;99420.00;4431030;32;34425;-75
2023/07/22 07:48:52;;;;;;;4.62;2.97;;;;;;;23.58;55.44;99430.88;4432425;32;34024;-75
2023/07/22 07:51:21;;;;;;;5.72;2.78;;;;;;;23.54;55.46;99444.09;4440922;32;35306;-76
2023/07/22 07:53:49;;;;;;;5.62;2.72;;;;;;;23.93;55.34;99439.78;4445010;32;32619;-74
2023/07/22 07:56:18;;;;;;;4.53;2.80;;;;;;;24.25;54.13;99438.13;4435092;32;34421;-74
2023/07/22 07:58:47;;;;;;;4.43;2.58;;;;;;;24.44;54.14;99441.09;4430793;32;33791;-75
2023/07/22 08:01:15;;;;;;;5.80;3.08;;;;;;;24.45;54.70;99445.50;4432313;32;32950;-74
2023/07/22 08:03:44;;;;;;;6.12;3.30;;;;;;;24.48;53.53;99445.06;4435252;32;34747;-74
2023/07/22 08:06:12;;;;;;;4.90;2.53;;;;;;;24.26;54.12;99449.91;4423034;32;33435;-74
2023/07/22 08:08:40;;;;;;;6.28;2.90;;;;;;;24.78;53.61;99449.03;4442874;32;34605;-74
2023/07/22 08:11:09;;;;;;;4.43;2.83;;;;;;;24.76;54.47;99453.03;4435240;32;33579;-75
2023/07/22 08:13:37;;;;;;;5.87;2.53;;;;;;;25.45;53.08;99457.84;4433654;32;34209;-72
2023/07/22 08:16:07;;;;;;;4.60;2.42;;;;;;;25.37;51.71;99463.59;4432910;32;33363;-73
2023/07/22 08:18:36;;;;;;;4.85;2.47;;;;;;;24.69;52.57;99471.34;4433306;32;33334;-74
2023/07/22 08:21:06;;;;;;;3.80;2.37;;;;;;;24.80;52.24;99473.44;4441674;32;33818;-74
2023/07/22 08:23:34;;;;;;;6.32;3.37;;;;;;;25.06;52.67;99469.78;4434792;32;34023;-73
2023/07/22 08:26:05;;;;;;;7.68;3.67;;;;;;;25.53;51.71;99484.19;4432754;32;34415;-74
2023/07/22 08:28:33;;;;;;;6.12;3.25;;;;;;;25.89;51.26;99490.97;4421490;32;34779;-73
2023/07/22 08:31:00;;;;;;;4.62;2.45;;;;;;;25.69;49.99;99494.62;4435076;32;35241;-73
2023/07/22 08:33:30;;;;;;;3.72;2.62;;;;;;;25.38;50.64;99498.16;4435606;32;33882;-73
2023/07/22 08:36:02;;;;;;;4.30;2.47;;;;;;;25.70;48.54;99499.06;4435010;32;33234;-73
2023/07/22 08:38:31;;;;;;;5.22;2.65;;;;;;;25.66;49.35;99507.94;4436941;32;34858;-73
2023/07/22 08:40:58;;;;;;;4.70;2.67;;;;;;;25.23;49.82;99512.13;4425909;32;34026;-72
2023/07/22 08:43:27;;;;;;;4.55;2.50;;;;;;;25.28;48.99;99511.47;4426915;32;34078;-72
2023/07/22 08:45:59;;;;;;;6.70;2.62;;;;;;;25.60;48.76;99509.66;4435860;32;33576;-73
2023/07/22 08:48:30;;;;;;;7.45;3.25;;;;;;;25.70;48.52;99520.97;4437262;32;34750;-73
2023/07/22 08:51:03;;;;;;;5.10;2.67;;;;;;;25.48;48.75;99511.38;4435560;32;34204;-73
2023/07/22 08:53:33;;;;;;;4.45;2.67;;;;;;;25.52;46.92;99510.75;4435028;32;35215;-74
2023/07/22 08:56:01;;;;;;;7.85;2.65;;;;;;;25.40;49.27;99509.75;4437449;32;34334;-75
2023/07/22 08:58:30;;;;;;;4.45;2.35;;;;;;;25.91;48.71;99514.38;4439098;32;33605;-74
2023/07/22 09:00:58;;;;;;;7.32;2.87;;;;;;;26.27;45.37;99503.81;4421634;32;34955;-73
2023/07/22 09:03:26;;;;;;;4.80;2.53;;;;;;;25.55;46.56;99521.28;4436189;32;34927;-73
2023/07/22 09:05:54;;;;;;;2.90;1.67;;;;;;;25.66;47.26;99524.38;4435488;32;34672;-74
2023/07/22 09:08:22;;;;;;;4.53;2.17;;;;;;;25.83;46.72;99522.84;4387016;32;35202;-73
2023/07/22 09:10:49;;;;;;;2.92;1.95;;;;;;;25.56;46.28;99519.38;4391195;32;34176;-73
2023/07/22 09:13:19;;;;;;;4.28;1.73;;;;;;;25.81;45.07;99530.47;4388768;32;34955;-74
2023/07/22 09:15:48;;;;;;;4.22;1.95;;;;;;;26.43;44.44;99527.94;4401328;32;33213;-74
2023/07/22 09:18:16;;;;;;;4.55;2.35;;;;;;;25.86;45.20;99529.78;4375793;32;33390;-74
2023/07/22 09:20:43;;;;;;;4.80;2.03;;;;;;;26.36;44.62;99524.41;4388500;32;34989;-74
2023/07/22 09:23:11;;;;;;;4.37;2.22;;;;;;;25.93;44.43;99514.97;4393292;32;33754;-73
2023/07/22 09:25:42;;;;;;;3.87;2.17;;;;;;;25.84;46.02;99529.16;4387840;32;33492;-74
2023/07/22 09:28:10;;;;;;;6.45;2.62;;;;;;;26.55;46.50;99522.56;4386911;32;33421;-73
2023/07/22 09:30:39;;;;;;;4.70;2.42;;;;;;;26.87;47.52;99521.47;4387138;32;34835;-73
2023/07/22 09:33:20;;;;;;;3.22;2.05;;;;;;;27.15;46.58;99515.47;4389573;32;33997;-73
2023/07/22 09:35:49;;;;;;;4.00;2.40;;;;;;;27.36;44.07;99519.69;4388635;32;34256;-74
2023/07/22 09:38:34;;;;;;;4.35;1.98;;;;;;;27.47;42.51;99520.81;4387397;32;34840;-74
2023/07/22 09:41:02;;;;;;;5.40;2.35;;;;;;;27.11;42.27;99513.37;4387542;32;33995;-74
2023/07/22 09:43:30;;;;;;;3.97;2.17;;;;;;;26.92;43.43;99518.84;4385720;32;33929;-74
2023/07/22 09:46:07;;;;;;;4.37;2.60;;;;;;;27.18;42.75;99520.50;4410638;32;34178;-75
2023/07/22 09:48:55;;;;;;;4.57;2.03;;;;;;;27.28;42.62;99510.91;4435842;32;33531;-74
2023/07/22 09:51:22;;;;;;;3.30;1.80;;;;;;;27.69;42.55;99512.09;4431759;32;34923;-74
2023/07/22 09:54:00;;;;;;;3.83;2.08;;;;;;;27.84;42.35;99516.13;4436540;32;34221;-75
2023/07/22 09:56:28;;;;;;;3.42;1.52;;;;;;;27.85;42.04;99508.72;4399499;32;33236;-75
2023/07/22 09:58:58;;;;;;;3.58;1.77;;;;;;;28.30;40.13;99513.75;4399545;32;33419;-76
2023/07/22 10:01:26;;;;;;;3.42;1.50;;;;;;;27.80;41.04;99514.94;4397654;32;34822;-74
2023/07/22 10:03:56;;;;;;;4.45;1.67;;;;;;;27.24;41.26;99510.53;4350606;32;33611;-74
2023/07/22 10:06:29;;;;;;;3.65;2.10;;;;;;;27.76;40.88;99513.66;4350899;32;33493;-73
2023/07/22 10:09:02;;;;;;;4.87;2.03;;;;;;;28.07;39.48;99526.38;4347155;32;33606;-73
2023/07/22 10:11:30;;;;;;;4.60;2.10;;;;;;;28.21;39.20;99520.69;4373224;32;35082;-74
2023/07/22 10:13:58;;;;;;;4.57;1.85;;;;;;;28.72;38.09;99522.00;4373180;32;33868;-75
2023/07/22 10:16:26;;;;;;;3.45;2.00;;;;;;;28.32;38.86;99522.63;4347335;32;33171;-74
2023/07/22 10:18:55;;;;;;;4.32;2.00;;;;;;;28.82;38.56;99522.22;4342864;32;34827;-76
2023/07/22 10:21:24;;;;;;;3.22;1.55;;;;;;;29.05;36.52;99523.31;4345041;32;33322;-74
2023/07/22 10:23:52;;;;;;;4.50;2.15;;;;;;;28.89;37.60;99525.72;4357504;32;35261;-73
2023/07/22 10:26:20;;;;;;;3.62;2.03;;;;;;;29.35;37.23;99526.78;4356155;32;34680;-73
2023/07/22 10:28:59;;;;;;;4.80;2.45;;;;;;;28.91;36.85;99529.06;4382091;32;34729;-73
2023/07/22 10:31:31;;;;;;;5.28;2.12;;;;;;;28.79;37.01;99526.28;4369391;32;34985;-73
2023/07/22 10:33:58;;;;;;;6.07;2.03;;;;;;;28.72;37.83;99524.75;4384776;32;34003;-73
2023/07/22 10:36:29;;;;;;;5.28;2.03;;;;;;;29.09;35.89;99530.06;4375607;32;31210;-73
2023/07/22 10:38:57;;;;;;;4.68;1.98;;;;;;;28.85;35.10;99538.28;4384756;32;35028;-73
2023/07/22 10:41:29;;;;;;;3.80;1.95;;;;;;;29.29;34.64;99535.19;4386179;32;33835;-73
2023/07/22 10:44:02;;;;;;;7.05;2.28;;;;;;;29.36;34.95;99533.97;4429115;32;35481;-73
2023/07/22 10:46:34;;;;;;;3.08;1.55;;;;;;;28.83;35.33;99529.44;4434282;32;33259;-73
2023/07/22 10:49:10;;;;;;;5.20;2.60;;;;;;;28.67;36.08;99521.84;4436308;32;33739;-73
2023/07/22 10:51:39;;;;;;;4.45;1.85;;;;;;;28.89;35.72;99517.47;4432741;32;33930;-73
2023/07/22 10:54:13;;;;;;;4.25;1.70;;;;;;;28.76;35.58;99513.03;4432707;32;34062;-74
2023/07/22 10:56:44;;;;;;;4.90;2.28;;;;;;;28.53;36.51;99511.06;4433457;32;33320;-73
2023/07/22 10:59:12;;;;;;;4.07;1.73;;;;;;;28.65;36.40;99513.00;4435366;32;34418;-75
2023/07/22 11:01:42;;;;;;;3.08;1.52;;;;;;;29.13;35.60;99506.44;4432503;32;33544;-76
2023/07/22 11:04:35;;;;;;;3.60;1.87;;;;;;;29.06;33.56;99517.59;4415724;32;32294;-76
2023/07/22 11:07:32;;;;;;;4.62;1.85;;;;;;;28.97;34.70;99508.81;4428525;32;32918;-73
2023/07/22 11:10:17;;;;;;;4.75;2.50;;;;;;;29.42;33.78;99507.34;4431237;32;33744;-74
2023/07/22 11:12:46;;;;;;;5.28;1.67;;;;;;;29.71;33.61;99495.28;4421111;32;34005;-74
2023/07/22 11:15:17;;;;;;;3.42;1.90;;;;;;;28.83;35.12;99501.88;4433850;32;33674;-74
2023/07/22 11:17:45;;;;;;;4.28;1.67;;;;;;;29.59;35.33;99496.38;4436113;32;33468;-75
2023/07/22 11:20:13;;;;;;;4.45;1.92;;;;;;;29.77;33.69;99500.91;4434894;32;35079;-74
2023/07/22 11:22:41;;;;;;;4.53;1.73;;;;;;;29.52;33.87;99506.72;4439644;32;34921;-75
2023/07/22 11:25:09;;;;;;;3.37;1.80;;;;;;;29.37;33.51;99499.78;4432468;32;33824;-78
2023/07/22 11:27:37;;;;;;;3.45;1.73;;;;;;;29.52;34.38;99504.78;4435473;32;33602;-76
2023/07/22 11:30:05;;;;;;;4.05;1.80;;;;;;;29.42;33.17;99502.66;4433934;32;33561;-74
2023/07/22 11:32:33;;;;;;;5.28;2.10;;;;;;;29.41;33.43;99501.00;4434530;32;33633;-77
2023/07/22 11:35:02;;;;;;;5.50;1.58;;;;;;;28.71;35.10;99501.03;4433796;32;33687;-73
2023/07/22 11:37:30;;;;;;;2.42;1.20;;;;;;;28.58;33.69;99498.53;4432259;32;33524;-75
2023/07/22 11:40:01;;;;;;;8.68;1.70;;;;;;;29.11;34.55;99494.81;4430533;32;35059;-75
2023/07/22 11:42:30;;;;;;;4.40;1.98;;;;;;;28.67;32.86;99480.56;4425909;32;34827;-73